Time;durP1;ratioP1;P1;durP2;ratioP2;P2;SDS_P1;SDS_P2;PMS_P1;PMS_P2;Temp;Humidity;BMP_temperature;BMP_pressure;BME280_temperature;BME280_humidity;BME280_pressure;Samples;Min_cycle;Max_cycle;Signal;HPM_P1;HPM_P2
2022/07/10 00:01:52;;;;;;;4.77;1.30;;;15.10;99.90;;;;;;5071597;28;20180;-80
2022/07/10 00:04:21;;;;;;;6.40;1.47;;;15.00;99.90;;;;;;5071839;28;20207;-79
2022/07/10 00:06:46;;;;;;;4.60;1.40;;;15.10;99.90;;;;;;5072388;28;20176;-81
2022/07/10 00:09:15;;;;;;;11.60;1.50;;;15.10;99.90;;;;;;5072296;28;20230;-78
2022/07/10 00:11:42;;;;;;;4.33;1.43;;;15.00;99.90;;;;;;5072840;28;20225;-81
2022/07/10 00:14:08;;;;;;;9.70;1.57;;;14.90;99.90;;;;;;5071445;28;20236;-80
2022/07/10 00:16:33;;;;;;;4.83;1.40;;;15.10;99.90;;;;;;5071503;28;20196;-80
2022/07/10 00:18:59;;;;;;;4.10;1.33;;;14.90;99.90;;;;;;5072069;28;20536;-81
2022/07/10 00:21:24;;;;;;;7.20;1.30;;;15.00;99.90;;;;;;5071726;28;20173;-81
2022/07/10 00:23:50;;;;;;;5.27;1.73;;;14.80;99.90;;;;;;5071521;28;20200;-80
2022/07/10 00:26:16;;;;;;;8.07;1.27;;;14.90;99.90;;;;;;5070497;28;20687;-80
2022/07/10 00:28:42;;;;;;;7.27;1.50;;;14.60;99.90;;;;;;5072932;28;20220;-80
2022/07/10 00:31:10;;;;;;;2.27;1.40;;;14.60;99.90;;;;;;5071425;28;20208;-79
2022/07/10 00:33:37;;;;;;;5.00;1.30;;;14.70;99.90;;;;;;5071428;28;20260;-80
2022/07/10 00:36:03;;;;;;;4.07;1.17;;;14.60;99.90;;;;;;5071681;28;20167;-80
2022/07/10 00:38:29;;;;;;;9.63;1.60;;;14.50;99.90;;;;;;5071453;28;20259;-81
2022/07/10 00:40:55;;;;;;;4.93;1.60;;;14.60;99.90;;;;;;5071090;28;20275;-80
2022/07/10 00:43:20;;;;;;;7.57;1.50;;;14.60;99.90;;;;;;5071145;28;20223;-80
2022/07/10 00:45:46;;;;;;;4.17;1.27;;;14.60;99.90;;;;;;5072054;28;20179;-81
2022/07/10 00:48:12;;;;;;;3.07;1.53;;;14.70;99.90;;;;;;5071695;28;20172;-78
2022/07/10 00:50:38;;;;;;;5.33;1.40;;;14.70;99.90;;;;;;5071158;28;20541;-79
2022/07/10 00:53:04;;;;;;;4.70;1.30;;;14.60;99.90;;;;;;5070760;28;20258;-80
2022/07/10 00:55:32;;;;;;;6.47;1.73;;;14.70;99.90;;;;;;5071305;28;20267;-80
2022/07/10 00:57:58;;;;;;;8.83;1.57;;;14.70;99.90;;;;;;5072548;28;20172;-80
2022/07/10 01:00:25;;;;;;;6.63;1.40;;;14.80;99.90;;;;;;5071030;28;20172;-81
2022/07/10 01:02:51;;;;;;;8.33;1.40;;;14.70;99.90;;;;;;5070437;28;20198;-81
2022/07/10 01:05:17;;;;;;;5.60;1.30;;;14.70;99.90;;;;;;5071247;28;20552;-79
2022/07/10 01:07:43;;;;;;;7.93;1.57;;;14.70;99.90;;;;;;5071242;28;20179;-81
2022/07/10 01:10:09;;;;;;;5.10;1.70;;;14.60;99.90;;;;;;5071352;28;20176;-80
2022/07/10 01:12:36;;;;;;;4.67;1.50;;;14.70;99.90;;;;;;5070345;28;20204;-82
2022/07/10 01:15:01;;;;;;;7.47;1.50;;;14.70;99.90;;;;;;5071141;28;20196;-81
2022/07/10 01:17:29;;;;;;;6.63;1.60;;;14.60;99.90;;;;;;5070390;28;20533;-81
2022/07/10 01:19:55;;;;;;;7.43;1.70;;;14.60;99.90;;;;;;5071663;28;20172;-80
2022/07/10 01:22:20;;;;;;;5.00;1.30;;;14.70;99.90;;;;;;5071030;28;20177;-81
2022/07/10 01:24:46;;;;;;;13.10;1.60;;;14.70;99.90;;;;;;5070908;28;20586;-80
2022/07/10 01:27:12;;;;;;;10.00;1.73;;;14.70;99.90;;;;;;5071881;28;20236;-81
2022/07/10 01:29:37;;;;;;;8.77;1.70;;;14.60;99.90;;;;;;5072171;28;20250;-80
2022/07/10 01:32:03;;;;;;;10.17;1.80;;;14.70;99.90;;;;;;5071678;28;20169;-79
2022/07/10 01:34:29;;;;;;;4.10;1.33;;;14.70;99.90;;;;;;5072000;28;20266;-80
2022/07/10 01:36:55;;;;;;;5.93;1.70;;;14.70;99.90;;;;;;5072499;28;20172;-80
2022/07/10 01:39:21;;;;;;;6.00;1.43;;;14.60;99.90;;;;;;5075196;28;20530;-81
2022/07/10 01:41:47;;;;;;;10.43;2.03;;;14.60;99.90;;;;;;5075166;28;20175;-80
2022/07/10 01:44:13;;;;;;;6.87;1.40;;;14.60;99.90;;;;;;5075456;28;20191;-80
2022/07/10 01:46:46;;;;;;;7.33;1.80;;;14.60;99.90;;;;;;5075249;28;20659;-81
2022/07/10 01:49:12;;;;;;;6.57;1.50;;;14.60;99.90;;;;;;5075203;28;20177;-80
2022/07/10 01:51:37;;;;;;;6.10;2.03;;;14.60;99.90;;;;;;5075162;28;20678;-81
2022/07/10 01:54:03;;;;;;;9.70;1.90;;;14.70;99.90;;;;;;5075906;28;20204;-82
2022/07/10 01:56:29;;;;;;;8.73;1.60;;;14.50;99.90;;;;;;5075325;28;20746;-81
2022/07/10 01:58:54;;;;;;;8.80;1.70;;;14.60;99.90;;;;;;5075212;28;20183;-82
2022/07/10 02:01:20;;;;;;;6.90;1.90;;;14.50;99.90;;;;;;5074837;28;20181;-82
2022/07/10 02:06:30;;;;;;;8.67;1.63;;;14.50;99.90;;;;;;5078152;28;20179;-82
2022/07/10 02:08:55;;;;;;;7.77;1.70;;;14.50;99.90;;;;;;5076577;28;20176;-81
2022/07/10 02:11:21;;;;;;;9.07;2.10;;;14.50;99.90;;;;;;5075894;28;20182;-84
2022/07/10 02:13:47;;;;;;;7.00;1.70;;;14.60;99.90;;;;;;5076600;28;20287;-81
2022/07/10 02:16:13;;;;;;;12.07;1.70;;;14.50;99.90;;;;;;5076523;28;20176;-83
2022/07/10 02:18:39;;;;;;;6.30;1.70;;;14.50;99.90;;;;;;5076619;28;20172;-82
2022/07/10 02:21:05;;;;;;;5.90;1.70;;;14.50;99.90;;;;;;5076542;28;20179;-82
2022/07/10 02:23:31;;;;;;;8.57;1.80;;;14.50;99.90;;;;;;5076560;28;20676;-81
2022/07/10 02:25:56;;;;;;;9.03;1.50;;;14.50;99.90;;;;;;5076319;28;20173;-83
2022/07/10 02:28:22;;;;;;;7.47;1.73;;;14.50;99.90;;;;;;5076732;28;20176;-83
2022/07/10 02:30:48;;;;;;;9.47;2.10;;;14.60;99.90;;;;;;5076286;28;20670;-83
2022/07/10 02:33:13;;;;;;;13.10;1.90;;;14.50;99.90;;;;;;5077740;28;20563;-81
2022/07/10 02:35:39;;;;;;;9.93;1.53;;;14.60;99.90;;;;;;5076466;28;20172;-82
2022/07/10 02:38:04;;;;;;;10.00;1.90;;;14.60;99.90;;;;;;5076957;28;20171;-84
2022/07/10 02:40:30;;;;;;;6.90;1.47;;;14.60;99.90;;;;;;5076827;28;20175;-84
2022/07/10 02:42:56;;;;;;;6.07;1.97;;;14.60;99.90;;;;;;5076585;28;20188;-82
2022/07/10 02:45:21;;;;;;;6.50;1.53;;;14.50;99.90;;;;;;5076663;28;20179;-84
2022/07/10 02:47:47;;;;;;;7.40;1.97;;;14.50;99.90;;;;;;5076041;28;20268;-81
2022/07/10 02:50:13;;;;;;;7.23;1.70;;;14.40;99.90;;;;;;5073512;28;20186;-81
2022/07/10 02:52:38;;;;;;;8.07;1.67;;;14.40;99.90;;;;;;5075509;28;20549;-80
2022/07/10 02:55:04;;;;;;;7.30;1.83;;;14.50;99.90;;;;;;5074747;28;20233;-81
2022/07/10 02:57:30;;;;;;;9.60;2.03;;;14.60;99.90;;;;;;5074569;28;20528;-81
2022/07/10 02:59:56;;;;;;;10.03;1.70;;;14.50;99.90;;;;;;5074354;28;20172;-81
2022/07/10 03:02:21;;;;;;;9.90;1.73;;;14.40;99.90;;;;;;5073518;28;20222;-81
2022/07/10 03:04:47;;;;;;;7.80;1.70;;;14.40;99.90;;;;;;5074182;28;20196;-80
2022/07/10 03:07:12;;;;;;;5.50;1.60;;;14.40;99.90;;;;;;5074602;28;20168;-81
2022/07/10 03:09:39;;;;;;;7.00;1.50;;;14.40;99.90;;;;;;5074568;28;20266;-82
2022/07/10 03:12:05;;;;;;;7.37;1.90;;;14.30;99.90;;;;;;5074459;28;20168;-81
2022/07/10 03:14:30;;;;;;;8.07;1.70;;;14.30;99.90;;;;;;5074684;28;20257;-81
2022/07/10 03:16:56;;;;;;;9.90;1.57;;;14.40;99.90;;;;;;5074184;28;20633;-81
2022/07/10 03:19:22;;;;;;;9.57;1.40;;;14.40;99.90;;;;;;5074855;28;20179;-81
2022/07/10 03:21:47;;;;;;;4.43;1.40;;;14.40;99.90;;;;;;5075184;28;20257;-82
2022/07/10 03:24:13;;;;;;;8.13;2.30;;;14.20;99.90;;;;;;5075756;28;20196;-82
2022/07/10 03:26:39;;;;;;;11.20;1.90;;;14.20;99.90;;;;;;5076954;28;20173;-83
2022/07/10 03:29:04;;;;;;;9.13;1.50;;;14.20;99.90;;;;;;5076358;28;20179;-83
2022/07/10 03:31:30;;;;;;;13.00;1.77;;;14.20;99.90;;;;;;5075836;28;20545;-82
2022/07/10 03:33:56;;;;;;;7.70;2.07;;;14.10;99.90;;;;;;5076636;28;20212;-82
2022/07/10 03:36:21;;;;;;;6.00;1.70;;;14.10;99.90;;;;;;5077144;28;20646;-81
2022/07/10 03:38:47;;;;;;;6.20;1.60;;;14.10;99.90;;;;;;5077075;28;20172;-83
2022/07/10 03:41:14;;;;;;;8.60;2.63;;;14.10;99.90;;;;;;5076969;28;20303;-82
2022/07/10 03:43:39;;;;;;;10.40;1.90;;;14.00;99.90;;;;;;5077096;28;20234;-82
2022/07/10 03:46:05;;;;;;;12.13;2.07;;;14.10;99.90;;;;;;5077502;28;20175;-83
2022/07/10 03:48:32;;;;;;;6.47;1.60;;;14.10;99.90;;;;;;5077302;28;20180;-81
2022/07/10 03:50:58;;;;;;;6.33;1.40;;;14.20;99.90;;;;;;5077077;28;20187;-83
2022/07/10 03:53:24;;;;;;;10.17;1.73;;;14.10;99.90;;;;;;5077157;28;20227;-83
2022/07/10 03:55:49;;;;;;;7.30;1.70;;;14.20;99.90;;;;;;5076996;28;20203;-82
2022/07/10 03:58:15;;;;;;;9.93;1.83;;;14.20;99.90;;;;;;5077486;28;20271;-82
2022/07/10 04:00:42;;;;;;;8.07;1.70;;;14.20;99.90;;;;;;5077917;28;20191;-83
2022/07/10 04:03:11;;;;;;;5.13;1.57;;;14.20;99.90;;;;;;5079762;28;20177;-82
2022/07/10 04:05:37;;;;;;;9.00;2.07;;;14.10;99.90;;;;;;5094347;28;20188;-84
2022/07/10 04:08:04;;;;;;;6.87;1.90;;;14.10;99.90;;;;;;5091145;28;20160;-82
2022/07/10 04:10:31;;;;;;;7.70;1.67;;;14.10;99.90;;;;;;5093612;28;20173;-84
2022/07/10 04:12:57;;;;;;;3.80;1.50;;;14.10;99.90;;;;;;5091528;28;20622;-83
2022/07/10 04:15:23;;;;;;;9.07;1.70;;;14.20;99.90;;;;;;5092593;28;20205;-81
2022/07/10 04:17:49;;;;;;;9.30;1.70;;;14.10;99.90;;;;;;5092580;28;20179;-84
2022/07/10 04:20:15;;;;;;;7.13;2.10;;;14.10;99.90;;;;;;5095383;28;20161;-81
2022/07/10 04:22:42;;;;;;;6.13;1.47;;;14.10;99.90;;;;;;5094636;28;20176;-81
2022/07/10 04:25:08;;;;;;;5.10;1.70;;;14.10;99.90;;;;;;5084311;28;20672;-80
2022/07/10 04:27:34;;;;;;;8.90;1.97;;;14.20;99.90;;;;;;5074295;28;20203;-82
2022/07/10 04:30:00;;;;;;;7.70;1.80;;;14.20;99.90;;;;;;5072044;28;20525;-79
2022/07/10 04:32:25;;;;;;;8.47;1.73;;;14.20;99.90;;;;;;5071860;28;20187;-81
2022/07/10 04:34:51;;;;;;;6.93;1.80;;;14.20;99.90;;;;;;5072348;28;20175;-82
2022/07/10 04:37:17;;;;;;;5.80;1.70;;;14.20;99.90;;;;;;5071517;28;20649;-80
2022/07/10 04:39:43;;;;;;;8.40;1.70;;;14.20;99.90;;;;;;5071535;28;20205;-77
2022/07/10 04:42:09;;;;;;;8.87;1.83;;;14.20;99.90;;;;;;5071433;28;20757;-80
2022/07/10 04:44:36;;;;;;;9.90;1.83;;;14.30;99.90;;;;;;5071409;28;20195;-79
2022/07/10 04:47:02;;;;;;;9.50;2.10;;;14.40;99.90;;;;;;5071250;28;20182;-80
2022/07/10 04:49:28;;;;;;;8.73;1.80;;;14.40;99.90;;;;;;5071544;28;20187;-80
2022/07/10 04:51:56;;;;;;;5.27;2.03;;;14.30;99.90;;;;;;5070932;28;20647;-79
2022/07/10 04:54:22;;;;;;;11.03;1.70;;;14.40;99.90;;;;;;5071563;28;20212;-78
2022/07/10 04:56:47;;;;;;;11.47;2.17;;;14.40;99.90;;;;;;5071383;28;20180;-80
2022/07/10 04:59:13;;;;;;;7.57;2.07;;;14.50;99.90;;;;;;5071613;28;20676;-80
2022/07/10 05:01:39;;;;;;;8.90;2.03;;;14.40;99.90;;;;;;5070614;28;20211;-81
2022/07/10 05:04:05;;;;;;;8.90;1.90;;;14.50;99.90;;;;;;5071323;28;20199;-81
2022/07/10 05:06:31;;;;;;;9.90;1.80;;;14.50;99.90;;;;;;5071357;28;20184;-81
2022/07/10 05:08:56;;;;;;;6.97;1.80;;;14.70;99.90;;;;;;5071673;28;20667;-82
2022/07/10 05:11:22;;;;;;;5.40;1.87;;;14.70;99.90;;;;;;5071266;28;20177;-83
2022/07/10 05:13:48;;;;;;;5.90;1.53;;;14.70;99.90;;;;;;5073472;28;20211;-82
2022/07/10 05:16:15;;;;;;;7.97;1.50;;;14.60;99.90;;;;;;5075279;28;20674;-82
2022/07/10 05:18:40;;;;;;;9.43;1.57;;;14.70;99.90;;;;;;5074948;28;20177;-82
2022/07/10 05:21:07;;;;;;;6.90;1.63;;;14.80;99.90;;;;;;5074971;28;20184;-82
2022/07/10 05:23:32;;;;;;;14.20;1.90;;;14.70;99.90;;;;;;5074998;28;20246;-79
2022/07/10 05:25:58;;;;;;;15.50;1.80;;;14.70;99.90;;;;;;5074864;28;20175;-82
2022/07/10 05:28:24;;;;;;;9.17;1.80;;;14.70;99.90;;;;;;5075491;28;20294;-80
2022/07/10 05:30:49;;;;;;;8.17;1.60;;;14.70;99.90;;;;;;5075260;28;20180;-80
2022/07/10 05:33:15;;;;;;;7.57;1.50;;;15.10;99.90;;;;;;5075053;28;20204;-82
2022/07/10 05:35:41;;;;;;;11.10;2.30;;;15.10;99.90;;;;;;5074903;28;20177;-82
2022/07/10 05:38:07;;;;;;;10.07;1.83;;;15.10;99.90;;;;;;5077105;22;20220;-84
2022/07/10 05:40:33;;;;;;;3.30;1.23;;;15.00;99.90;;;;;;5057950;28;20275;-84
2022/07/10 05:42:59;;;;;;;6.70;1.67;;;14.90;99.90;;;;;;5056241;28;20201;-83
2022/07/10 05:45:25;;;;;;;6.30;1.53;;;14.90;99.90;;;;;;5056520;28;20641;-82
2022/07/10 05:47:51;;;;;;;6.93;1.47;;;14.90;99.90;;;;;;5057960;28;20174;-83
2022/07/10 05:50:16;;;;;;;5.10;1.30;;;14.90;99.90;;;;;;5056282;28;20173;-84
2022/07/10 05:52:42;;;;;;;8.23;1.90;;;14.80;99.90;;;;;;5055363;28;20227;-84
2022/07/10 05:55:08;;;;;;;15.73;2.00;;;15.00;99.90;;;;;;5054910;28;20165;-84
2022/07/10 05:57:35;;;;;;;13.60;1.73;;;15.50;99.90;;;;;;5054827;28;20227;-83
2022/07/10 06:00:01;;;;;;;2.57;1.27;;;15.80;99.90;;;;;;5054704;28;20201;-83
2022/07/10 06:02:27;;;;;;;8.57;1.60;;;15.90;99.90;;;;;;5053741;28;20170;-82
2022/07/10 06:04:52;;;;;;;6.30;1.50;;;15.90;99.90;;;;;;5054317;28;20637;-83
2022/07/10 06:07:18;;;;;;;10.80;1.90;;;15.90;99.90;;;;;;5054781;28;20172;-82
2022/07/10 06:09:44;;;;;;;5.57;1.50;;;16.20;99.90;;;;;;5054661;28;20191;-83
2022/07/10 06:12:10;;;;;;;7.83;1.43;;;16.60;99.90;;;;;;5054008;28;20680;-83
2022/07/10 06:14:35;;;;;;;7.47;2.07;;;16.80;99.90;;;;;;5054101;28;20212;-84
2022/07/10 06:17:01;;;;;;;4.27;1.50;;;16.80;99.90;;;;;;5053839;28;20173;-83
2022/07/10 06:19:27;;;;;;;10.60;1.83;;;16.60;99.90;;;;;;5055759;28;20611;-82
2022/07/10 06:24:38;;;;;;;9.67;1.70;;;16.70;99.90;;;;;;5053978;28;20254;-83
2022/07/10 06:27:04;;;;;;;10.67;1.50;;;17.10;99.90;;;;;;5054504;28;20170;-83
2022/07/10 06:29:30;;;;;;;5.80;1.60;;;17.40;99.90;;;;;;5054509;28;20170;-84
2022/07/10 06:31:55;;;;;;;6.97;1.43;;;17.10;99.90;;;;;;5054229;28;20559;-80
2022/07/10 06:34:21;;;;;;;10.90;2.00;;;17.00;99.90;;;;;;5053407;28;20665;-80
2022/07/10 06:36:47;;;;;;;10.93;1.90;;;16.90;99.90;;;;;;5054435;28;20177;-81
2022/07/10 06:39:12;;;;;;;17.00;1.80;;;17.00;99.90;;;;;;5054436;28;20173;-80
2022/07/10 06:41:38;;;;;;;8.37;1.40;;;17.20;99.90;;;;;;5053671;28;20193;-82
2022/07/10 06:44:04;;;;;;;11.63;1.70;;;17.00;99.90;;;;;;5053647;28;20692;-81
2022/07/10 06:46:31;;;;;;;7.10;1.70;;;17.00;99.90;;;;;;5053660;28;20235;-79
2022/07/10 06:48:58;;;;;;;5.67;1.40;;;17.00;99.90;;;;;;5053711;28;20204;-80
2022/07/10 06:51:24;;;;;;;6.50;1.97;;;17.10;99.90;;;;;;5053214;28;20634;-80
2022/07/10 06:53:50;;;;;;;4.97;1.80;;;17.20;99.90;;;;;;5053764;28;20205;-81
2022/07/10 06:56:16;;;;;;;5.37;1.30;;;17.30;99.90;;;;;;5052957;28;20174;-80
2022/07/10 06:58:42;;;;;;;10.67;2.10;;;17.00;99.90;;;;;;5054410;28;20265;-80
2022/07/10 07:01:07;;;;;;;10.03;1.80;;;17.00;99.90;;;;;;5052685;28;20226;-81
2022/07/10 07:03:34;;;;;;;9.97;1.90;;;16.90;99.90;;;;;;5054620;28;20648;-80
2022/07/10 07:06:00;;;;;;;13.50;2.27;;;16.80;99.90;;;;;;5053515;28;20169;-80
2022/07/10 07:08:25;;;;;;;5.40;1.47;;;16.90;99.90;;;;;;5054014;28;20268;-80
2022/07/10 07:10:51;;;;;;;14.37;1.50;;;16.70;99.90;;;;;;5053193;28;20174;-80
2022/07/10 07:13:17;;;;;;;6.70;1.60;;;16.80;99.90;;;;;;5054612;28;20212;-80
2022/07/10 07:15:49;;;;;;;4.00;1.50;;;16.70;99.90;;;;;;5053281;28;20281;-80
2022/07/10 07:18:16;;;;;;;4.10;1.53;;;16.60;99.90;;;;;;5052774;28;20645;-80
2022/07/10 07:23:26;;;;;;;9.70;1.77;;;16.40;99.90;;;;;;5054856;28;20212;-80
2022/07/10 07:25:52;;;;;;;12.63;1.90;;;16.20;99.90;;;;;;5052897;28;20185;-81
2022/07/10 07:28:19;;;;;;;9.33;1.70;;;16.20;99.90;;;;;;5054571;28;20207;-81
2022/07/10 07:30:48;;;;;;;6.10;1.80;;;16.00;99.90;;;;;;5051975;28;20177;-78
2022/07/10 07:33:14;;;;;;;11.17;1.80;;;16.20;99.90;;;;;;5052206;28;20210;-80
2022/07/10 07:35:40;;;;;;;7.73;1.80;;;16.20;99.90;;;;;;5052229;28;20268;-80
2022/07/10 07:38:06;;;;;;;7.03;1.70;;;16.50;99.90;;;;;;5051600;28;20273;-81
2022/07/10 07:40:32;;;;;;;6.50;1.30;;;16.90;99.90;;;;;;5052290;28;20578;-79
2022/07/10 07:42:58;;;;;;;6.33;1.50;;;17.20;99.90;;;;;;5051683;28;20300;-80
2022/07/10 07:45:25;;;;;;;12.57;1.73;;;17.00;99.90;;;;;;5051803;28;20664;-80
2022/07/10 07:48:04;;;;;;;10.73;1.60;;;16.80;99.90;;;;;;5053265;28;20556;-79
2022/07/10 07:50:33;;;;;;;9.00;1.60;;;17.00;99.90;;;;;;5053044;28;20547;-80
2022/07/10 07:53:00;;;;;;;9.37;1.53;;;16.80;99.90;;;;;;5053621;28;20228;-81
2022/07/10 07:55:27;;;;;;;13.07;1.77;;;16.70;99.90;;;;;;5052931;28;20260;-80
2022/07/10 07:57:54;;;;;;;9.83;1.80;;;16.90;99.90;;;;;;5054069;28;20177;-82
2022/07/10 08:00:22;;;;;;;7.87;2.07;;;17.10;99.90;;;;;;5050195;28;20177;-82
2022/07/10 08:02:49;;;;;;;6.03;1.70;;;17.00;99.90;;;;;;5052741;28;20299;-82
2022/07/10 08:05:15;;;;;;;6.77;1.70;;;17.00;99.90;;;;;;5055893;28;20173;-81
2022/07/10 08:07:47;;;;;;;10.70;1.67;;;17.00;99.90;;;;;;5054336;28;21012;-82
2022/07/10 08:10:17;;;;;;;12.37;1.60;;;17.20;99.90;;;;;;5055291;28;20557;-81
2022/07/10 08:12:45;;;;;;;13.87;1.93;;;17.20;99.90;;;;;;5053056;28;20673;-83
2022/07/10 08:15:13;;;;;;;8.60;1.40;;;17.30;99.90;;;;;;5053622;28;20529;-82
2022/07/10 08:17:39;;;;;;;6.83;1.67;;;17.20;99.90;;;;;;5054714;28;20197;-81
2022/07/10 08:20:07;;;;;;;9.33;1.93;;;17.30;99.90;;;;;;5054053;28;20204;-82
2022/07/10 08:22:33;;;;;;;11.40;2.10;;;17.40;99.90;;;;;;5053906;28;20183;-83
2022/07/10 08:24:59;;;;;;;7.83;1.83;;;17.50;99.90;;;;;;5053833;28;20184;-82
2022/07/10 08:27:25;;;;;;;8.90;1.70;;;17.50;99.90;;;;;;5053331;28;20173;-82
2022/07/10 08:29:51;;;;;;;5.40;1.30;;;17.70;99.90;;;;;;5052292;28;20219;-83
2022/07/10 08:32:17;;;;;;;6.80;1.53;;;17.70;99.90;;;;;;5052288;28;20590;-82
2022/07/10 08:34:43;;;;;;;11.03;1.90;;;17.50;99.90;;;;;;5053036;28;20201;-83
2022/07/10 08:37:09;;;;;;;8.07;1.67;;;17.50;99.90;;;;;;5053714;28;20228;-83
2022/07/10 08:39:35;;;;;;;10.13;2.13;;;17.30;99.90;;;;;;5065862;23;20232;-87
2022/07/10 08:42:01;;;;;;;7.90;1.50;;;17.10;99.90;;;;;;5051837;28;20189;-87
2022/07/10 08:44:29;;;;;;;7.77;1.43;;;17.00;99.90;;;;;;5052638;28;20180;-84
2022/07/10 08:46:54;;;;;;;12.67;1.97;;;17.00;99.90;;;;;;5053945;28;20172;-86
2022/07/10 08:49:23;;;;;;;10.03;1.83;;;17.00;99.90;;;;;;5054713;28;20617;-86
2022/07/10 08:52:02;;;;;;;6.27;1.77;;;16.80;99.90;;;;;;5055215;28;20208;-86
2022/07/10 08:54:30;;;;;;;6.63;1.70;;;16.80;99.90;;;;;;5057475;28;20287;-86
2022/07/10 08:57:03;;;;;;;5.90;1.60;;;17.00;99.90;;;;;;5057151;28;20172;-86
2022/07/10 08:59:29;;;;;;;4.40;1.50;;;16.90;99.90;;;;;;5057951;28;20256;-87
2022/07/10 09:01:55;;;;;;;7.20;2.00;;;17.00;99.90;;;;;;5057154;28;20616;-86
2022/07/10 09:04:23;;;;;;;13.50;2.07;;;17.10;99.90;;;;;;5056152;28;20239;-86
2022/07/10 09:06:50;;;;;;;6.20;1.73;;;17.70;99.90;;;;;;5058695;28;20736;-86
2022/07/10 09:09:15;;;;;;;6.83;1.70;;;17.80;99.90;;;;;;5059918;28;20263;-86
2022/07/10 09:11:42;;;;;;;13.43;1.90;;;17.40;99.90;;;;;;5055697;28;20224;-86
2022/07/10 09:14:11;;;;;;;9.57;1.63;;;17.40;99.90;;;;;;5055407;28;20246;-84
2022/07/10 09:16:42;;;;;;;15.30;1.80;;;17.00;99.90;;;;;;5057140;28;20176;-84
2022/07/10 09:19:28;;;;;;;10.23;1.70;;;16.90;99.90;;;;;;5055367;28;20166;-83
2022/07/10 09:22:05;;;;;;;7.13;1.63;;;16.70;99.90;;;;;;5073674;28;20261;-84
2022/07/10 09:24:45;;;;;;;11.17;1.80;;;16.80;99.90;;;;;;5058585;28;20186;-83
2022/07/10 09:27:12;;;;;;;9.20;1.70;;;17.00;99.90;;;;;;5058302;28;20170;-82
2022/07/10 09:29:51;;;;;;;12.40;2.17;;;17.00;99.90;;;;;;5055074;28;20193;-83
2022/07/10 09:32:17;;;;;;;14.43;2.27;;;16.70;99.90;;;;;;5060681;28;20205;-82
2022/07/10 09:34:45;;;;;;;10.30;1.90;;;16.60;99.90;;;;;;5042834;28;20316;-84
2022/07/10 09:37:27;;;;;;;10.67;2.03;;;16.30;99.90;;;;;;5058252;28;20174;-84
2022/07/10 09:40:04;;;;;;;5.73;1.97;;;16.30;99.90;;;;;;5040833;28;20190;-84
2022/07/10 09:42:39;;;;;;;10.50;2.40;;;16.30;99.90;;;;;;5054088;28;20687;-79
2022/07/10 09:45:11;;;;;;;7.53;1.87;;;16.00;99.90;;;;;;5036073;28;20169;-80
2022/07/10 09:47:37;;;;;;;12.47;2.20;;;16.00;99.90;;;;;;5036896;28;20233;-83
2022/07/10 09:50:03;;;;;;;10.37;2.00;;;16.10;99.90;;;;;;5038320;28;20173;-83
2022/07/10 09:52:29;;;;;;;9.37;1.90;;;16.20;99.90;;;;;;5043246;28;20644;-83
2022/07/10 09:54:56;;;;;;;9.07;2.00;;;16.20;99.90;;;;;;5056891;28;20412;-85
2022/07/10 09:57:27;;;;;;;9.37;2.07;;;16.40;99.90;;;;;;5058685;28;20169;-83
2022/07/10 09:59:55;;;;;;;9.57;1.90;;;16.60;99.90;;;;;;5058031;28;20259;-84
2022/07/10 10:02:21;;;;;;;12.53;1.93;;;16.60;99.90;;;;;;5058374;28;20200;-85
2022/07/10 10:04:48;;;;;;;7.60;1.90;;;16.80;99.90;;;;;;5056853;28;20181;-85
2022/07/10 10:07:18;;;;;;;5.83;2.10;;;17.10;99.90;;;;;;5055732;28;20641;-83
2022/07/10 10:09:56;;;;;;;5.97;2.17;;;17.10;99.90;;;;;;5055249;28;20280;-81
2022/07/10 10:12:36;;;;;;;4.07;2.27;;;17.00;99.90;;;;;;5033810;28;20189;-81
2022/07/10 10:15:02;;;;;;;6.83;1.63;;;17.20;99.90;;;;;;5035180;28;20174;-80
2022/07/10 10:17:28;;;;;;;5.65;2.08;;;17.30;99.90;;;;;;5049924;28;20449;-81
2022/07/10 10:22:43;;;;;;;4.23;1.87;;;17.00;99.90;;;;;;5035051;28;20244;-81
2022/07/10 10:25:10;;;;;;;4.40;1.60;;;16.90;99.90;;;;;;5035875;28;20196;-80
2022/07/10 10:27:36;;;;;;;4.07;1.80;;;16.80;99.90;;;;;;5041717;28;20185;-80
2022/07/10 10:30:02;;;;;;;4.60;1.50;;;16.80;99.90;;;;;;5056200;28;20173;-80
2022/07/10 10:32:28;;;;;;;4.47;1.80;;;16.90;99.90;;;;;;5053222;28;20200;-81
2022/07/10 10:34:57;;;;;;;4.93;1.87;;;17.00;99.90;;;;;;5055687;28;20169;-81
2022/07/10 10:37:35;;;;;;;6.57;1.83;;;16.90;99.90;;;;;;5055716;28;20645;-80
2022/07/10 10:40:02;;;;;;;4.90;1.90;;;16.90;99.90;;;;;;5056111;28;20176;-80
2022/07/10 10:42:44;;;;;;;2.50;1.67;;;16.90;99.90;;;;;;5053616;28;20281;-80
2022/07/10 10:45:32;;;;;;;4.87;1.90;;;16.90;99.90;;;;;;5054600;28;20193;-81
2022/07/10 10:48:15;;;;;;;6.47;2.30;;;16.80;99.90;;;;;;5054245;28;20181;-81
2022/07/10 10:50:51;;;;;;;5.43;2.10;;;16.60;99.90;;;;;;5054042;28;20264;-81
2022/07/10 10:53:27;;;;;;;7.17;2.20;;;16.60;99.90;;;;;;5055133;28;20565;-81
2022/07/10 10:56:02;;;;;;;9.60;2.23;;;16.50;99.90;;;;;;5055478;28;20192;-81
2022/07/10 10:58:39;;;;;;;7.57;2.60;;;16.30;99.90;;;;;;5053656;28;20172;-81
2022/07/10 11:01:06;;;;;;;6.07;2.20;;;16.60;99.90;;;;;;5054783;28;20226;-80
2022/07/10 11:03:32;;;;;;;8.80;2.70;;;16.80;99.90;;;;;;5053018;28;20756;-80
2022/07/10 11:05:57;;;;;;;10.47;2.17;;;17.30;99.90;;;;;;5053495;28;20208;-80
2022/07/10 11:08:40;;;;;;;6.53;2.40;;;17.30;99.90;;;;;;5055105;28;20176;-80
2022/07/10 11:11:41;;;;;;;6.13;2.13;;;17.40;99.90;;;;;;5054595;28;20649;-80
2022/07/10 11:14:08;;;;;;;6.97;1.73;;;17.30;99.90;;;;;;5072955;28;20641;-80
2022/07/10 11:16:34;;;;;;;4.77;1.90;;;17.10;99.90;;;;;;5058848;28;20182;-80
2022/07/10 11:19:01;;;;;;;2.97;1.60;;;17.30;99.90;;;;;;5053943;28;20659;-80
2022/07/10 11:21:32;;;;;;;2.93;1.80;;;17.40;99.90;;;;;;5055671;28;20256;-80
2022/07/10 11:24:15;;;;;;;7.00;2.23;;;17.40;99.90;;;;;;5053646;28;20212;-80
2022/07/10 11:27:02;;;;;;;10.40;2.20;;;17.70;99.90;;;;;;5053494;28;20230;-81
2022/07/10 11:29:27;;;;;;;5.67;1.77;;;17.90;99.90;;;;;;5054447;28;20248;-81
2022/07/10 11:31:54;;;;;;;2.90;1.57;;;18.10;99.90;;;;;;5053426;28;20220;-81
2022/07/10 11:34:21;;;;;;;2.63;1.30;;;18.00;99.90;;;;;;5052783;28;20227;-81
2022/07/10 11:36:47;;;;;;;4.27;1.20;;;18.20;99.90;;;;;;5054317;28;20232;-83
2022/07/10 11:39:13;;;;;;;1.10;1.00;;;18.40;99.90;;;;;;5053297;28;20220;-83
2022/07/10 11:41:45;;;;;;;3.60;0.90;;;18.40;99.90;;;;;;5053740;28;20222;-81
2022/07/10 11:44:19;;;;;;;0.83;0.80;;;18.70;99.90;;;;;;5055150;28;20171;-80
2022/07/10 11:46:48;;;;;;;2.17;0.80;;;18.60;99.90;;;;;;5055124;28;20181;-81
2022/07/10 11:49:15;;;;;;;2.90;1.07;;;18.70;99.90;;;;;;5053346;28;20270;-81
2022/07/10 11:51:41;;;;;;;0.87;0.87;;;18.30;99.90;;;;;;5054621;28;20194;-80
2022/07/10 11:54:07;;;;;;;1.30;0.87;;;18.20;99.90;;;;;;5054466;28;20194;-81
2022/07/10 11:56:35;;;;;;;2.83;1.00;;;17.60;99.90;;;;;;5050647;28;20691;-87
2022/07/10 11:59:07;;;;;;;1.27;1.00;;;17.50;99.90;;;;;;5051450;28;20184;-88
2022/07/10 12:01:40;;;;;;;1.50;1.40;;;17.00;99.90;;;;;;5049035;28;20177;-87
2022/07/10 12:04:08;;;;;;;1.80;1.00;;;16.80;99.90;;;;;;5050446;28;20184;-87
2022/07/10 12:06:39;;;;;;;1.80;1.10;;;17.10;99.90;;;;;;5050696;28;20234;-82
2022/07/10 12:09:07;;;;;;;1.27;1.00;;;17.20;99.90;;;;;;5050781;28;20177;-86
2022/07/10 12:11:33;;;;;;;2.43;1.17;;;17.20;99.90;;;;;;5052166;28;20675;-84
2022/07/10 12:14:19;;;;;;;1.93;1.10;;;17.30;99.90;;;;;;5055031;28;20201;-83
2022/07/10 12:16:47;;;;;;;3.60;1.03;;;17.60;99.90;;;;;;5051500;28;20173;-87
2022/07/10 12:19:14;;;;;;;1.67;0.80;;;17.80;99.90;;;;;;5052083;28;20192;-85
2022/07/10 12:21:45;;;;;;;1.70;1.00;;;17.90;99.90;;;;;;5049903;28;20205;-86
2022/07/10 12:24:12;;;;;;;1.80;0.80;;;17.80;99.90;;;;;;5053532;28;20188;-83
2022/07/10 12:26:41;;;;;;;2.07;0.87;;;17.90;99.90;;;;;;5056708;28;20242;-82
2022/07/10 12:29:21;;;;;;;0.70;0.70;;;17.90;99.90;;;;;;5060417;28;20169;-82
2022/07/10 12:31:49;;;;;;;1.53;0.60;;;18.10;99.90;;;;;;5061187;28;20710;-83
2022/07/10 12:34:15;;;;;;;1.47;0.70;;;18.40;99.90;;;;;;5056241;28;20615;-84
2022/07/10 12:37:10;;;;;;;0.60;0.60;;;18.40;99.90;;;;;;5060745;28;20530;-84
2022/07/10 12:39:40;;;;;;;0.60;0.60;;;18.30;99.90;;;;;;5067441;28;20185;-81
2022/07/10 12:42:07;;;;;;;0.77;0.70;;;18.60;99.90;;;;;;5065916;28;20215;-81
2022/07/10 12:44:47;;;;;;;0.70;0.70;;;18.70;99.90;;;;;;5053639;28;20664;-82
2022/07/10 12:47:15;;;;;;;0.70;0.70;;;18.90;99.90;;;;;;5055258;28;20189;-82
2022/07/10 12:50:03;;;;;;;0.93;0.60;;;18.90;99.90;;;;;;5056608;28;20173;-82
2022/07/10 12:52:28;;;;;;;0.40;0.40;;;19.00;99.90;;;;;;5055483;28;20193;-82
2022/07/10 12:55:09;;;;;;;1.37;0.70;;;19.10;99.90;;;;;;5055343;28;20212;-82
2022/07/10 12:57:52;;;;;;;0.73;0.60;;;18.90;99.90;;;;;;5056603;28;20166;-82
2022/07/10 13:00:20;;;;;;;0.50;0.50;;;18.90;99.90;;;;;;5057319;28;20193;-82